Time;durP1;ratioP1;P1;durP2;ratioP2;P2;SDS_P1;SDS_P2;PMS_P1;PMS_P2;Temp;Humidity;BMP_temperature;BMP_pressure;BME280_temperature;BME280_humidity;BME280_pressure;Samples;Min_cycle;Max_cycle;Signal;HPM_P1;HPM_P2
2022/03/18 00:01:11;;;;;;;12.70;5.50;;;;;;;1.37;70.97;102120.72;5011998;28;20025;-21
2022/03/18 00:03:36;;;;;;;11.32;5.30;;;;;;;1.80;70.86;102156.28;5029864;28;20398;-21
2022/03/18 00:06:02;;;;;;;11.77;6.00;;;;;;;1.66;71.27;102127.50;5029970;28;20405;-20
2022/03/18 00:08:28;;;;;;;9.48;5.30;;;;;;;1.91;70.73;102144.97;5029783;28;20421;-20
2022/03/18 00:10:55;;;;;;;12.13;6.32;;;;;;;2.10;69.90;102147.09;5011735;28;20022;-21
2022/03/18 00:13:21;;;;;;;9.50;6.03;;;;;;;2.17;68.97;102122.03;5029627;28;20089;-20
2022/03/18 00:15:46;;;;;;;13.40;6.20;;;;;;;2.09;69.66;102124.38;5012421;28;20065;-21
2022/03/18 00:18:12;;;;;;;13.07;5.95;;;;;;;2.13;70.20;102144.25;5030011;28;20421;-20
2022/03/18 00:20:37;;;;;;;10.13;5.53;;;;;;;2.07;68.80;102126.28;5029510;28;20029;-21
2022/03/18 00:23:03;;;;;;;12.52;6.22;;;;;;;2.07;69.13;102134.19;5010993;28;20049;-21
2022/03/18 00:25:29;;;;;;;13.38;6.18;;;;;;;2.00;69.43;102120.59;5029051;28;20028;-21
2022/03/18 00:27:55;;;;;;;32.85;8.20;;;;;;;1.62;69.25;102112.88;5029047;28;20038;-20
2022/03/18 00:30:20;;;;;;;8.90;5.53;;;;;;;1.44;69.42;102133.44;5028977;28;20036;-20
2022/03/18 00:32:49;;;;;;;14.70;5.95;;;;;;;1.22;71.93;102126.22;5027991;28;20029;-21
2022/03/18 00:35:15;;;;;;;11.35;5.28;;;;;;;1.16;72.32;102138.81;5028768;28;20040;-20
2022/03/18 00:37:40;;;;;;;10.57;5.32;;;;;;;1.18;72.53;102139.56;5011459;28;20059;-20
2022/03/18 00:40:07;;;;;;;13.45;6.07;;;;;;;1.23;72.29;102133.13;5029329;28;20033;-20
2022/03/18 00:42:33;;;;;;;10.80;5.72;;;;;;;1.16;71.47;102130.94;5011222;28;20080;-20
2022/03/18 00:44:59;;;;;;;11.93;6.18;;;;;;;0.85;72.11;102110.38;5029146;28;20067;-20
2022/03/18 00:52:53;;;;;;;10.07;5.72;;;;;;;0.99;71.13;102118.13;5028845;28;20049;-20
2022/03/18 00:55:19;;;;;;;10.55;5.18;;;;;;;0.84;73.01;102121.81;5011292;28;20025;-21
2022/03/18 00:57:44;;;;;;;11.77;5.85;;;;;;;0.87;71.66;102103.22;5011028;28;20033;-20
2022/03/18 01:00:10;;;;;;;10.05;5.65;;;;;;;0.81;72.10;102130.75;5011203;28;20026;-20
2022/03/18 01:02:36;;;;;;;12.15;5.78;;;;;;;1.03;71.42;102114.34;5010864;28;20037;-20
2022/03/18 01:05:02;;;;;;;14.75;6.25;;;;;;;1.15;71.14;102128.44;5027331;28;20025;-21
2022/03/18 01:07:28;;;;;;;12.30;6.20;;;;;;;1.14;71.34;102132.81;5028560;28;20022;-20
2022/03/18 01:09:54;;;;;;;10.75;6.13;;;;;;;1.12;70.75;102129.47;5029149;28;20048;-20
2022/03/18 01:12:20;;;;;;;10.88;5.70;;;;;;;1.18;71.82;102136.91;5010990;28;20480;-21
2022/03/18 01:14:45;;;;;;;13.50;6.78;;;;;;;1.18;71.42;102138.72;5028706;28;20041;-20
2022/03/18 01:17:11;;;;;;;11.93;7.05;;;;;;;1.17;71.38;102142.31;5028826;28;20033;-20
2022/03/18 01:19:36;;;;;;;12.07;6.25;;;;;;;0.74;70.25;102124.25;5028858;28;20044;-21
2022/03/18 01:22:02;;;;;;;11.10;5.57;;;;;;;0.72;71.17;102147.97;5028390;28;20168;-21
2022/03/18 01:24:27;;;;;;;13.15;6.25;;;;;;;0.76;70.91;102138.94;5028816;28;20025;-21
2022/03/18 01:26:53;;;;;;;14.23;6.38;;;;;;;0.63;70.95;102129.34;5010603;28;20497;-20
2022/03/18 01:29:19;;;;;;;10.40;6.20;;;;;;;0.87;70.16;102140.81;5027071;28;20041;-20
2022/03/18 01:31:44;;;;;;;11.52;5.85;;;;;;;0.54;70.01;102144.78;5028486;28;20026;-20
2022/03/18 01:34:10;;;;;;;9.50;5.13;;;;;;;0.67;71.20;102154.47;5027066;28;20026;-20
2022/03/18 01:36:36;;;;;;;12.10;6.07;;;;;;;0.86;70.65;102164.56;5028154;28;20026;-20
2022/03/18 01:39:02;;;;;;;13.77;7.60;;;;;;;0.75;71.27;102158.25;5028410;28;20115;-21
2022/03/18 01:41:28;;;;;;;8.80;5.03;;;;;;;1.10;69.12;102165.53;5010418;28;20048;-20
2022/03/18 01:43:53;;;;;;;10.23;5.85;;;;;;;1.17;68.39;102142.31;5028010;28;20038;-20
2022/03/18 01:46:19;;;;;;;11.63;5.72;;;;;;;1.16;68.70;102157.22;5010176;28;20031;-20
2022/03/18 01:48:45;;;;;;;13.13;5.93;;;;;;;1.08;69.55;102159.53;5010283;28;20029;-20
2022/03/18 01:51:15;;;;;;;10.52;5.85;;;;;;;0.84;69.23;102155.94;5009803;28;20029;-20
2022/03/18 01:53:43;;;;;;;11.90;6.25;;;;;;;0.89;69.90;102138.94;5010532;28;20017;-20
2022/03/18 01:56:08;;;;;;;10.57;6.15;;;;;;;1.08;69.89;102159.53;5027819;28;20116;-20
2022/03/18 01:58:34;;;;;;;10.18;5.80;;;;;;;1.12;69.32;102166.25;5028062;28;20605;-20
2022/03/18 02:00:59;;;;;;;12.88;6.90;;;;;;;1.23;69.95;102175.19;5027535;28;20078;-21
2022/03/18 02:03:25;;;;;;;10.07;5.93;;;;;;;1.34;68.80;102175.28;5009848;28;20025;-21
2022/03/18 02:05:50;;;;;;;11.00;6.18;;;;;;;1.18;68.88;102160.56;5010161;28;20048;-20
2022/03/18 02:08:17;;;;;;;11.38;6.30;;;;;;;1.60;68.45;102176.94;5027714;28;20087;-21
2022/03/18 02:10:43;;;;;;;14.30;7.05;;;;;;;1.49;68.88;102182.13;5026649;28;20021;-20
2022/03/18 02:13:09;;;;;;;11.45;6.20;;;;;;;1.63;69.22;102190.81;5027555;28;20136;-20
2022/03/18 02:15:34;;;;;;;17.45;6.50;;;;;;;1.46;70.24;102179.69;5027707;28;20462;-21
2022/03/18 02:18:00;;;;;;;10.90;6.10;;;;;;;2.03;68.05;102193.25;5027498;28;20026;-20
2022/03/18 02:20:25;;;;;;;13.25;7.20;;;;;;;2.07;68.04;102199.97;5027763;28;20033;-20
2022/03/18 02:22:51;;;;;;;11.80;6.90;;;;;;;2.22;68.18;102196.22;5027391;28;20029;-20
2022/03/18 02:25:17;;;;;;;19.20;11.45;;;;;;;2.11;66.41;102181.22;5027510;28;20736;-20
2022/03/18 02:28:01;;;;;;;14.70;8.20;;;;;;;1.63;68.61;102202.19;5009787;28;20030;-20
2022/03/18 02:30:33;;;;;;;10.82;7.00;;;;;;;1.71;69.33;102204.28;5009812;28;20120;-20
2022/03/18 02:32:58;;;;;;;13.52;7.32;;;;;;;1.78;67.67;102200.28;5027438;28;20490;-21
2022/03/18 02:35:26;;;;;;;13.88;7.72;;;;;;;1.54;69.31;102187.06;5009703;28;20190;-20
2022/03/18 02:37:52;;;;;;;20.38;10.00;;;;;;;1.36;70.25;102184.75;5009783;28;20046;-21
2022/03/18 02:40:17;;;;;;;19.77;11.35;;;;;;;1.55;69.56;102204.50;5027607;28;20033;-20
2022/03/18 02:42:44;;;;;;;17.15;9.57;;;;;;;1.29;69.16;102203.69;5027758;28;20030;-20
2022/03/18 02:45:10;;;;;;;16.08;9.00;;;;;;;1.08;72.35;102198.94;5009069;28;20037;-21
2022/03/18 02:47:37;;;;;;;13.00;8.02;;;;;;;1.39;69.79;102199.50;5027302;28;20061;-20
2022/03/18 02:50:03;;;;;;;12.20;7.25;;;;;;;1.32;69.55;102198.22;5009530;28;20477;-21
2022/03/18 02:52:29;;;;;;;12.82;6.50;;;;;;;1.52;68.79;102195.03;5009578;28;20025;-21
2022/03/18 02:54:54;;;;;;;13.27;8.07;;;;;;;1.50;68.87;102201.38;5009417;28;20040;-21
2022/03/18 02:57:20;;;;;;;20.90;13.05;;;;;;;0.81;70.63;102175.38;5030165;28;20037;-21
2022/03/18 02:59:45;;;;;;;12.98;7.72;;;;;;;1.48;68.56;102198.84;5031065;28;20026;-20
2022/03/18 03:02:12;;;;;;;16.63;9.93;;;;;;;0.93;69.25;102163.22;5030975;28;20052;-20
2022/03/18 03:07:58;;;;;;;42.47;30.70;;;;;;;0.75;69.19;102192.41;5031516;28;20021;-20
2022/03/18 03:10:07;;;;;;;60.33;37.47;;;;;;;0.98;69.36;102205.78;5030790;28;20119;-21
2022/03/18 03:12:33;;;;;;;17.80;11.27;;;;;;;0.99;68.84;102210.09;5030922;28;20792;-20
2022/03/18 03:14:58;;;;;;;14.65;9.32;;;;;;;1.16;70.01;102198.44;5030593;28;20041;-20
2022/03/18 03:17:23;;;;;;;12.88;7.68;;;;;;;1.02;68.85;102212.50;5030663;28;20029;-20
2022/03/18 03:19:49;;;;;;;10.52;6.82;;;;;;;0.92;69.30;102219.31;5012810;28;20030;-21
2022/03/18 03:22:14;;;;;;;66.50;38.20;;;;;;;1.17;69.33;102208.84;5012639;28;20049;-20
2022/03/18 03:24:40;;;;;;;44.75;30.42;;;;;;;1.43;68.20;102219.38;5012463;28;20055;-20
2022/03/18 03:27:05;;;;;;;34.22;22.67;;;;;;;1.15;68.54;102226.50;5030415;28;20086;-20
2022/03/18 03:29:31;;;;;;;19.02;13.23;;;;;;;1.14;68.87;102231.84;5012783;28;20026;-20
2022/03/18 03:31:56;;;;;;;20.55;15.15;;;;;;;1.22;68.65;102229.56;5012616;28;20501;-20
2022/03/18 03:34:22;;;;;;;21.60;15.10;;;;;;;1.22;67.84;102228.72;5030554;28;20489;-20
2022/03/18 03:36:47;;;;;;;16.33;10.45;;;;;;;1.32;68.13;102229.78;5030279;28;20083;-21
2022/03/18 03:39:13;;;;;;;15.68;10.15;;;;;;;1.00;67.05;102235.41;5030331;28;20022;-20
2022/03/18 03:41:38;;;;;;;13.85;8.50;;;;;;;1.00;67.74;102230.16;5030372;28;20079;-20
2022/03/18 03:44:04;;;;;;;13.93;7.28;;;;;;;0.40;68.51;102232.31;5030406;28;20083;-22
2022/03/18 03:46:33;;;;;;;21.23;8.98;;;;;;;0.70;68.01;102239.16;5030540;28;20030;-20
2022/03/18 03:48:58;;;;;;;10.55;6.97;;;;;;;0.71;68.59;102240.81;5030094;28;20033;-20
2022/03/18 03:51:23;;;;;;;13.25;7.47;;;;;;;0.56;69.04;102252.34;5030199;28;20091;-21
2022/03/18 03:53:49;;;;;;;11.82;7.35;;;;;;;0.39;68.88;102235.91;5029921;28;20490;-20
2022/03/18 03:56:14;;;;;;;11.38;7.53;;;;;;;0.83;68.13;102249.69;5012281;28;20029;-21
2022/03/18 03:58:40;;;;;;;13.02;7.07;;;;;;;0.56;67.94;102233.97;5030097;28;20845;-21
2022/03/18 04:01:05;;;;;;;12.18;7.25;;;;;;;0.90;67.46;102257.97;5029590;28;20116;-21
2022/03/18 04:03:31;;;;;;;14.35;7.55;;;;;;;0.35;69.09;102244.91;5012257;28;20036;-21
2022/03/18 04:05:56;;;;;;;13.23;7.28;;;;;;;0.28;70.62;102269.84;5012055;28;20474;-21
2022/03/18 04:08:22;;;;;;;16.17;7.47;;;;;;;0.09;70.21;102274.59;5028106;28;20017;-20
2022/03/18 04:10:47;;;;;;;12.40;7.20;;;;;;;-0.17;70.34;102232.44;5029416;28;20087;-22
2022/03/18 04:13:12;;;;;;;12.18;6.68;;;;;;;-0.06;70.26;102282.47;5024918;28;20064;-21
2022/03/18 04:15:38;;;;;;;11.95;6.90;;;;;;;0.13;69.98;102286.56;5008701;28;20413;-20
2022/03/18 04:18:03;;;;;;;14.63;7.43;;;;;;;0.02;70.74;102281.13;5008641;28;20037;-21
2022/03/18 04:20:30;;;;;;;15.73;8.50;;;;;;;-0.12;70.63;102267.13;5009840;28;20494;-21
2022/03/18 04:22:55;;;;;;;14.15;7.25;;;;;;;-0.05;71.58;102278.91;5009410;28;20566;-21
2022/03/18 04:25:21;;;;;;;19.08;7.10;;;;;;;0.28;70.50;102290.84;5008105;28;20125;-20
2022/03/18 04:27:47;;;;;;;15.68;6.82;;;;;;;0.00;71.36;102278.63;5009868;28;20170;-21
2022/03/18 04:30:13;;;;;;;10.52;6.93;;;;;;;0.13;69.90;102289.19;5006972;28;20406;-22
2022/03/18 04:32:40;;;;;;;11.57;6.57;;;;;;;-0.06;71.31;102285.09;5007643;28;20064;-20
2022/03/18 04:35:07;;;;;;;12.35;7.07;;;;;;;-0.29;71.67;102283.88;5009344;28;20080;-20
2022/03/18 04:37:32;;;;;;;15.95;8.32;;;;;;;-0.55;73.20;102259.25;5008067;28;20424;-20
2022/03/18 04:39:58;;;;;;;33.65;20.33;;;;;;;0.10;72.08;102285.00;5024767;28;20022;-21
2022/03/18 04:42:23;;;;;;;25.88;18.13;;;;;;;0.39;71.23;102287.56;5008262;28;20466;-21
2022/03/18 04:44:49;;;;;;;24.45;18.13;;;;;;;0.29;70.41;102287.28;5009162;28;20073;-20
2022/03/18 04:47:15;;;;;;;17.70;10.15;;;;;;;0.15;70.54;102296.03;5009327;28;20022;-20
2022/03/18 04:49:40;;;;;;;37.42;21.58;;;;;;;0.23;71.01;102298.19;5009590;28;20028;-21
2022/03/18 04:52:06;;;;;;;32.55;21.58;;;;;;;0.33;69.86;102301.91;5007747;28;20022;-21
2022/03/18 04:54:32;;;;;;;22.63;15.02;;;;;;;0.06;69.73;102285.25;5009292;28;20072;-20
2022/03/18 04:57:18;;;;;;;57.00;28.10;;;;;;;0.02;71.16;102310.00;5009226;28;20038;-21
2022/03/18 04:59:45;;;;;;;27.02;13.73;;;;;;;0.14;70.85;102301.38;5007926;28;20030;-20
2022/03/18 05:02:10;;;;;;;68.05;39.20;;;;;;;0.23;70.60;102308.69;5008964;28;20026;-21
2022/03/18 05:04:37;;;;;;;35.15;24.90;;;;;;;0.47;69.47;102292.28;5007547;28;20472;-21
2022/03/18 05:07:03;;;;;;;25.75;17.23;;;;;;;0.61;68.98;102313.25;5008574;28;20029;-21
2022/03/18 05:09:28;;;;;;;34.67;24.42;;;;;;;0.74;68.36;102314.16;5008991;28;20116;-20
2022/03/18 05:11:54;;;;;;;26.33;17.48;;;;;;;0.63;68.86;102311.38;5007474;28;20163;-21
2022/03/18 05:14:19;;;;;;;20.27;12.05;;;;;;;1.01;67.66;102310.69;5023981;28;20054;-20
2022/03/18 05:16:45;;;;;;;16.50;10.68;;;;;;;1.09;67.20;102323.31;5008774;28;20026;-21
2022/03/18 05:19:11;;;;;;;16.63;9.77;;;;;;;0.71;67.91;102324.84;5008082;28;20057;-21
2022/03/18 05:21:37;;;;;;;16.48;9.32;;;;;;;0.38;69.51;102328.69;5023631;28;20033;-20
2022/03/18 05:24:03;;;;;;;12.52;7.95;;;;;;;0.42;68.60;102334.59;5008720;28;20549;-20
2022/03/18 05:26:29;;;;;;;19.65;9.85;;;;;;;0.63;67.49;102310.53;5008614;28;20022;-21
2022/03/18 05:28:55;;;;;;;14.80;8.00;;;;;;;0.64;68.41;102336.72;5008730;28;20091;-20
2022/03/18 05:31:21;;;;;;;18.58;11.13;;;;;;;0.89;68.14;102306.22;5008712;28;20076;-20
2022/03/18 05:33:46;;;;;;;18.30;11.73;;;;;;;1.09;67.71;102337.28;5006995;28;20030;-20
2022/03/18 05:36:12;;;;;;;20.70;13.27;;;;;;;1.47;66.51;102341.78;5023488;28;20088;-20
2022/03/18 05:38:37;;;;;;;21.52;12.10;;;;;;;1.28;67.32;102343.97;5008623;28;20859;-20
2022/03/18 05:41:03;;;;;;;18.88;11.57;;;;;;;1.04;67.25;102342.00;5007087;28;20418;-20
2022/03/18 05:43:28;;;;;;;19.00;11.23;;;;;;;1.07;67.46;102346.22;5007111;28;20033;-21
2022/03/18 05:45:54;;;;;;;20.10;11.13;;;;;;;1.42;66.75;102337.78;5008480;28;20103;-21
2022/03/18 05:48:19;;;;;;;18.00;10.13;;;;;;;1.65;67.20;102363.34;5008243;28;20724;-20
2022/03/18 05:50:45;;;;;;;16.92;9.82;;;;;;;1.47;67.63;102361.97;5008118;28;20030;-21
2022/03/18 05:53:12;;;;;;;16.42;9.30;;;;;;;1.77;66.83;102367.78;5006816;28;20037;-20
2022/03/18 05:58:21;;;;;;;12.13;7.32;;;;;;;1.71;66.16;102367.38;5008516;28;20040;-20
2022/03/18 06:00:47;;;;;;;12.63;7.60;;;;;;;1.88;66.43;102371.47;5006800;28;20026;-21
2022/03/18 06:03:13;;;;;;;16.52;7.70;;;;;;;1.67;65.81;102360.63;5006682;28;20033;-21
2022/03/18 06:05:42;;;;;;;13.32;8.13;;;;;;;1.65;66.73;102379.13;5006864;28;20037;-20
2022/03/18 06:13:37;;;;;;;15.30;8.60;;;;;;;2.48;66.02;102380.47;5016981;28;20056;-20
2022/03/18 06:16:02;;;;;;;12.27;7.95;;;;;;;2.39;64.58;102393.34;5010215;28;20030;-20
2022/03/18 06:18:28;;;;;;;16.55;7.38;;;;;;;2.33;64.41;102375.34;5026325;28;20541;-20
2022/03/18 06:20:55;;;;;;;16.75;8.45;;;;;;;2.92;64.73;102403.63;5009632;28;20018;-21
2022/03/18 06:23:21;;;;;;;15.40;7.90;;;;;;;2.83;63.67;102404.28;5027463;28;20052;-20
2022/03/18 06:25:47;;;;;;;13.93;8.23;;;;;;;3.14;61.99;102413.44;5027497;28;20477;-20
2022/03/18 06:28:12;;;;;;;14.40;8.05;;;;;;;2.99;62.97;102414.56;5027606;28;20116;-19
2022/03/18 06:30:38;;;;;;;14.73;8.45;;;;;;;2.85;62.30;102404.19;5029692;28;20041;-21
2022/03/18 06:33:04;;;;;;;14.27;8.18;;;;;;;2.72;62.26;102402.44;5031172;28;20413;-21
2022/03/18 06:35:30;;;;;;;13.00;8.57;;;;;;;2.95;61.98;102407.84;5013912;28;20306;-21
2022/03/18 06:37:55;;;;;;;13.38;7.65;;;;;;;2.75;59.37;102406.63;5031733;28;20076;-21
2022/03/18 06:40:21;;;;;;;13.52;8.52;;;;;;;2.62;62.29;102414.56;5031422;28;20025;-20
2022/03/18 06:42:46;;;;;;;15.35;9.02;;;;;;;2.79;63.01;102393.13;5013353;28;20037;-20
2022/03/18 06:45:12;;;;;;;13.50;7.53;;;;;;;2.68;61.94;102411.50;5031755;28;20030;-20
2022/03/18 06:47:38;;;;;;;11.65;8.48;;;;;;;2.76;63.14;102409.16;5031786;28;20059;-21
2022/03/18 06:50:03;;;;;;;13.63;8.23;;;;;;;2.71;62.25;102406.00;5031805;28;20120;-20
2022/03/18 06:52:29;;;;;;;12.95;8.63;;;;;;;2.73;63.55;102414.63;4997147;28;20039;-21
2022/03/18 06:54:54;;;;;;;16.63;9.55;;;;;;;3.04;62.11;102407.16;5031913;28;20533;-22
2022/03/18 06:57:20;;;;;;;11.95;7.78;;;;;;;3.00;61.63;102410.97;5013300;28;20475;-20
2022/03/18 06:59:45;;;;;;;13.32;8.05;;;;;;;3.29;63.11;102421.16;5013815;28;20030;-21
2022/03/18 07:02:13;;;;;;;14.05;8.25;;;;;;;3.23;59.84;102427.75;5031269;28;20026;-22
2022/03/18 07:04:39;;;;;;;13.73;7.22;;;;;;;3.18;56.05;102412.25;5031300;28;20101;-21
2022/03/18 07:07:06;;;;;;;14.77;8.80;;;;;;;3.38;52.83;102431.06;5013115;28;20038;-21
2022/03/18 07:09:32;;;;;;;13.38;6.22;;;;;;;3.32;47.05;102432.34;5031487;28;20076;-20
2022/03/18 07:11:58;;;;;;;10.68;5.70;;;;;;;3.54;47.87;102431.59;5031007;28;20026;-20
2022/03/18 07:14:24;;;;;;;8.13;4.70;;;;;;;3.49;46.20;102444.28;5031163;28;20055;-20
2022/03/18 07:19:33;;;;;;;10.80;5.93;;;;;;;3.75;49.47;102439.69;5015749;28;20033;-20
2022/03/18 07:21:59;;;;;;;9.40;4.68;;;;;;;3.86;47.85;102423.03;5012953;28;20029;-20
2022/03/18 07:24:24;;;;;;;9.57;4.95;;;;;;;4.02;45.19;102449.97;5030490;28;20473;-21
2022/03/18 07:26:50;;;;;;;10.57;6.05;;;;;;;4.32;46.79;102443.28;5012909;28;20041;-20
2022/03/18 07:29:15;;;;;;;10.52;5.78;;;;;;;4.18;45.83;102446.97;5030784;28;20478;-20
2022/03/18 07:31:41;;;;;;;11.43;5.72;;;;;;;3.96;45.10;102405.56;5030673;28;20519;-22
2022/03/18 07:34:06;;;;;;;16.13;9.48;;;;;;;4.17;45.53;102431.28;5012960;28;20416;-21
2022/03/18 07:36:32;;;;;;;8.73;4.80;;;;;;;4.41;43.50;102429.38;5030635;28;20404;-21
2022/03/18 07:38:57;;;;;;;9.32;4.68;;;;;;;4.83;41.64;102441.94;5030281;28;20120;-20
2022/03/18 07:41:23;;;;;;;9.98;5.20;;;;;;;4.78;40.22;102434.38;5030441;28;20021;-20
2022/03/18 07:43:49;;;;;;;11.35;5.53;;;;;;;5.06;39.79;102453.28;5030471;28;20482;-21
2022/03/18 07:46:14;;;;;;;9.35;5.35;;;;;;;5.11;39.15;102445.84;5030322;28;20036;-20
2022/03/18 07:48:43;;;;;;;7.82;4.47;;;;;;;4.93;38.62;102448.16;5030937;28;20480;-20
2022/03/18 07:51:08;;;;;;;9.55;5.03;;;;;;;4.82;40.44;102427.88;5029860;28;20457;-20
2022/03/18 07:53:34;;;;;;;7.88;4.20;;;;;;;4.67;39.72;102421.16;5030258;28;20033;-20
2022/03/18 07:55:59;;;;;;;10.50;5.00;;;;;;;4.55;38.79;102427.41;5030297;28;20034;-21
2022/03/18 07:58:24;;;;;;;7.43;4.30;;;;;;;4.67;36.64;102450.22;5030349;28;20116;-20
2022/03/18 08:00:50;;;;;;;20.65;5.75;;;;;;;4.87;40.32;102450.47;5029969;28;20459;-20
2022/03/18 08:03:16;;;;;;;8.30;4.85;;;;;;;5.26;38.51;102445.56;5030159;28;20548;-21
2022/03/18 08:05:42;;;;;;;27.98;6.03;;;;;;;5.54;40.37;102452.91;5030102;28;20076;-20
2022/03/18 08:08:07;;;;;;;10.43;4.75;;;;;;;5.52;40.54;102438.97;5029717;28;20037;-21
2022/03/18 08:10:33;;;;;;;11.75;5.05;;;;;;;5.85;37.09;102445.03;5030260;28;20382;-21
2022/03/18 08:12:58;;;;;;;7.32;4.80;;;;;;;5.70;37.87;102436.59;5029786;28;20421;-22
2022/03/18 08:15:24;;;;;;;8.77;4.78;;;;;;;5.41;37.87;102431.06;5030273;28;20774;-20
2022/03/18 08:17:52;;;;;;;16.95;8.70;;;;;;;5.16;40.29;102422.47;5029908;28;20044;-20
2022/03/18 08:20:18;;;;;;;14.23;7.60;;;;;;;4.55;38.61;102416.84;5011159;28;20026;-21
2022/03/18 08:22:44;;;;;;;9.50;5.20;;;;;;;4.99;41.61;102425.69;5029329;28;20272;-21
2022/03/18 08:25:09;;;;;;;67.30;28.13;;;;;;;4.91;40.17;102422.81;5011325;28;20031;-20
2022/03/18 08:27:36;;;;;;;8.60;5.25;;;;;;;4.79;41.79;102404.31;5029817;28;20124;-20
2022/03/18 08:30:05;;;;;;;12.57;6.22;;;;;;;4.81;41.15;102396.25;5029656;28;20394;-20
2022/03/18 08:32:30;;;;;;;11.00;4.90;;;;;;;5.21;36.48;102430.91;5011500;28;20118;-20
2022/03/18 08:34:57;;;;;;;8.40;4.70;;;;;;;5.49;38.66;102425.97;5029133;28;20489;-20
2022/03/18 08:40:07;;;;;;;12.05;4.97;;;;;;;5.31;39.38;102403.66;5028953;28;20064;-20
2022/03/18 08:42:34;;;;;;;15.65;8.35;;;;;;;4.94;40.60;102391.66;5029132;28;20091;-21
2022/03/18 08:45:00;;;;;;;8.75;5.07;;;;;;;5.15;37.16;102402.31;5028731;28;20033;-20
2022/03/18 08:47:26;;;;;;;9.75;5.18;;;;;;;5.06;39.96;102386.34;5029018;28;20553;-20
2022/03/18 08:49:52;;;;;;;8.95;5.57;;;;;;;5.58;36.44;102382.84;5029066;28;20034;-20
2022/03/18 08:52:18;;;;;;;10.25;5.22;;;;;;;5.90;37.59;102378.44;5028914;28;20108;-21
2022/03/18 08:54:43;;;;;;;9.35;5.28;;;;;;;6.04;35.57;102375.47;5028300;28;20060;-21
2022/03/18 08:57:09;;;;;;;8.68;5.20;;;;;;;6.42;35.85;102390.69;5028633;28;20029;-20
2022/03/18 08:59:35;;;;;;;8.75;5.22;;;;;;;6.96;35.88;102390.41;5029190;28;20485;-20
2022/03/18 09:02:00;;;;;;;7.90;4.65;;;;;;;6.58;34.35;102394.66;5028916;28;20075;-21
2022/03/18 09:04:26;;;;;;;10.50;5.50;;;;;;;6.84;36.77;102387.88;5028879;28;20036;-20
2022/03/18 09:06:51;;;;;;;8.60;5.03;;;;;;;7.17;34.79;102369.03;5028856;28;20021;-21
2022/03/18 09:09:17;;;;;;;21.73;12.68;;;;;;;6.71;37.11;102367.91;5028878;28;20030;-21
2022/03/18 09:11:43;;;;;;;9.15;5.03;;;;;;;6.12;36.34;102357.09;5028780;28;20021;-21
2022/03/18 09:14:10;;;;;;;10.30;5.50;;;;;;;6.31;37.19;102372.22;5028402;28;20057;-20
2022/03/18 09:16:43;;;;;;;9.35;5.28;;;;;;;6.61;33.45;102378.47;5064927;28;20391;-21
2022/03/18 09:19:08;;;;;;;9.05;5.10;;;;;;;6.63;36.26;102371.22;5064352;28;20055;-21
2022/03/18 09:21:35;;;;;;;9.05;5.15;;;;;;;7.10;36.34;102376.72;5065002;28;20041;-21
2022/03/18 09:24:01;;;;;;;8.63;5.25;;;;;;;7.21;35.48;102366.00;5063423;28;20414;-22
2022/03/18 09:26:28;;;;;;;8.73;5.13;;;;;;;7.72;34.80;102369.25;5064754;28;20036;-21
2022/03/18 09:28:53;;;;;;;8.43;4.90;;;;;;;7.54;30.19;102366.50;5063044;28;20394;-21
2022/03/18 09:31:20;;;;;;;9.75;5.50;;;;;;;7.01;34.36;102364.31;5064541;28;20032;-21
2022/03/18 09:33:46;;;;;;;14.70;6.95;;;;;;;6.96;36.43;102347.94;5064379;28;20033;-20
2022/03/18 09:36:14;;;;;;;13.20;6.65;;;;;;;6.29;34.70;102350.31;5064380;28;20024;-20
2022/03/18 09:38:41;;;;;;;12.18;7.05;;;;;;;6.29;34.09;102371.53;5064308;28;20025;-21
2022/03/18 09:41:07;;;;;;;10.18;5.28;;;;;;;6.46;33.28;102369.22;5063987;28;20033;-21
2022/03/18 09:43:37;;;;;;;20.73;10.32;;;;;;;6.78;36.01;102369.88;5064230;28;20032;-20
2022/03/18 09:46:08;;;;;;;8.25;5.55;;;;;;;6.41;36.69;102361.66;5064066;28;20033;-20
2022/03/18 09:48:34;;;;;;;9.73;5.82;;;;;;;7.17;33.36;102359.28;5064219;28;20031;-20
2022/03/18 09:51:00;;;;;;;8.32;5.00;;;;;;;7.71;33.45;102337.53;5063841;28;20066;-20
2022/03/18 09:53:25;;;;;;;8.18;4.85;;;;;;;7.36;32.49;102342.50;5064003;28;20021;-20
2022/03/18 09:55:51;;;;;;;7.93;5.30;;;;;;;8.16;33.95;102353.59;5063941;28;20033;-20
2022/03/18 09:58:18;;;;;;;8.25;4.88;;;;;;;8.50;32.43;102338.88;5064000;28;20052;-21
2022/03/18 10:00:45;;;;;;;9.85;4.78;;;;;;;8.75;34.56;102354.13;5063609;28;20558;-20
2022/03/18 10:03:16;;;;;;;9.40;4.95;;;;;;;8.89;32.75;102351.94;5064208;28;20077;-21
2022/03/18 10:05:59;;;;;;;8.40;4.43;;;;;;;8.15;31.01;102353.72;5063646;28;20028;-21
2022/03/18 10:08:25;;;;;;;19.63;9.95;;;;;;;7.39;33.73;102328.09;5063859;28;20021;-21
2022/03/18 10:10:51;;;;;;;17.00;8.93;;;;;;;8.05;31.32;102345.81;5063566;28;20025;-21
2022/03/18 10:13:18;;;;;;;13.55;7.30;;;;;;;8.20;31.22;102330.22;5063619;28;20040;-21
2022/03/18 10:15:44;;;;;;;9.18;5.50;;;;;;;9.03;33.53;102336.28;5062099;28;20118;-20
2022/03/18 10:18:12;;;;;;;8.48;4.72;;;;;;;9.77;30.67;102341.31;5063422;28;20025;-21
2022/03/18 10:20:42;;;;;;;6.77;4.03;;;;;;;9.17;31.10;102337.53;5063743;28;20024;-20
2022/03/18 10:23:25;;;;;;;9.65;4.63;;;;;;;8.93;30.26;102332.00;5063259;28;20024;-20
2022/03/18 10:25:56;;;;;;;7.22;4.22;;;;;;;9.75;29.53;102332.66;5062786;28;20115;-21
2022/03/18 10:28:35;;;;;;;7.63;4.13;;;;;;;9.54;30.56;102347.16;5050058;28;20044;-20
2022/03/18 10:31:18;;;;;;;6.68;3.85;;;;;;;10.05;28.56;102345.47;5049894;28;20029;-21
2022/03/18 10:39:28;;;;;;;7.25;3.92;;;;;;;10.23;28.37;102323.19;5050307;28;20472;-20
2022/03/18 10:41:55;;;;;;;8.70;4.07;;;;;;;10.15;26.66;102312.50;5050122;28;20040;-20
2022/03/18 10:44:21;;;;;;;7.83;4.03;;;;;;;10.17;25.73;102326.50;5049718;28;20074;-21
2022/03/18 10:46:50;;;;;;;5.88;3.83;;;;;;;10.06;24.07;102309.81;5049894;28;20424;-20
2022/03/18 10:49:17;;;;;;;6.90;4.00;;;;;;;10.43;22.73;102313.13;5048769;28;20036;-20
2022/03/18 10:51:43;;;;;;;9.75;4.85;;;;;;;10.85;25.91;102306.88;5049767;28;20044;-20
2022/03/18 10:54:08;;;;;;;9.80;5.05;;;;;;;10.88;26.95;102308.38;5049731;28;20029;-20
2022/03/18 10:56:57;;;;;;;9.70;5.75;;;;;;;10.37;26.04;102322.59;5049695;28;20039;-20
2022/03/18 10:59:26;;;;;;;8.48;4.50;;;;;;;9.74;25.73;102313.13;5049974;28;20050;-20
2022/03/18 11:01:52;;;;;;;9.90;4.53;;;;;;;8.87;27.39;102304.19;5049559;28;20055;-21
2022/03/18 11:04:18;;;;;;;21.70;7.20;;;;;;;8.40;26.46;102305.19;5049746;28;20112;-20
2022/03/18 11:07:29;;;;;;;8.60;4.38;;;;;;;9.57;27.94;102306.88;5049596;28;20116;-20
2022/03/18 11:11:06;;;;;;;8.10;3.78;;;;;;;10.29;24.95;102330.56;5049273;28;20037;-20
2022/03/18 11:12:20;;;;;;;7.03;4.00;;;;;;;10.05;24.94;102286.81;5049320;28;20047;-21
2022/03/18 11:14:48;;;;;;;7.65;4.07;;;;;;;11.15;25.96;102299.19;5049336;28;20049;-20
2022/03/18 11:17:14;;;;;;;6.50;3.92;;;;;;;11.50;24.21;102287.28;5049242;28;20064;-20
2022/03/18 11:19:44;;;;;;;6.95;3.97;;;;;;;12.20;23.45;102304.47;5049425;28;20719;-21
2022/03/18 11:22:10;;;;;;;6.63;3.35;;;;;;;11.67;27.12;102290.75;5049503;28;20036;-20
2022/03/18 11:24:36;;;;;;;6.07;3.53;;;;;;;12.13;22.41;102298.13;5049287;28;20033;-21
2022/03/18 11:27:03;;;;;;;5.60;3.33;;;;;;;11.47;23.61;102298.31;5048949;28;20044;-20
2022/03/18 11:29:31;;;;;;;7.38;3.75;;;;;;;11.98;23.89;102309.56;5048008;28;20040;-20
2022/03/18 11:32:12;;;;;;;6.18;3.45;;;;;;;12.83;22.83;102292.69;5049139;28;20139;-20
2022/03/18 11:34:57;;;;;;;6.18;3.50;;;;;;;13.74;23.59;102281.97;5048989;28;20045;-20
2022/03/18 11:37:25;;;;;;;8.43;4.15;;;;;;;13.39;23.49;102279.00;5049039;28;20093;-21
2022/03/18 11:39:51;;;;;;;7.00;4.18;;;;;;;12.24;26.74;102284.38;5048163;28;20021;-20
2022/03/18 11:42:22;;;;;;;7.22;4.20;;;;;;;12.36;25.18;102280.31;5048850;28;20052;-21
2022/03/18 11:44:59;;;;;;;7.03;3.97;;;;;;;12.45;26.34;102297.97;5048502;28;20102;-20
2022/03/18 11:47:26;;;;;;;5.97;3.58;;;;;;;12.34;25.87;102295.69;5049003;28;20055;-20
2022/03/18 11:49:51;;;;;;;5.82;3.33;;;;;;;12.58;21.13;102294.69;5048913;28;20127;-21